sensor_id;sensor_type;location;lat;lon;timestamp;temperature;humidity
25716;DHT22;13573;50.936;4.328;2022-08-01T00:01:45;21.00;99.90
25716;DHT22;13573;50.936;4.328;2022-08-01T00:04:12;20.60;99.90
25716;DHT22;13573;50.936;4.328;2022-08-01T00:11:32;21.30;99.90
25716;DHT22;13573;50.936;4.328;2022-08-01T00:13:58;21.30;99.90
25716;DHT22;13573;50.936;4.328;2022-08-01T00:16:25;21.30;99.90
25716;DHT22;13573;50.936;4.328;2022-08-01T00:18:52;21.50;99.90
25716;DHT22;13573;50.936;4.328;2022-08-01T00:21:18;21.40;99.90
25716;DHT22;13573;50.936;4.328;2022-08-01T00:23:45;20.90;99.90
25716;DHT22;13573;50.936;4.328;2022-08-01T00:26:13;20.30;99.90
25716;DHT22;13573;50.936;4.328;2022-08-01T00:28:40;21.00;99.90
25716;DHT22;13573;50.936;4.328;2022-08-01T00:31:07;20.80;99.90
25716;DHT22;13573;50.936;4.328;2022-08-01T00:33:35;20.80;99.90
25716;DHT22;13573;50.936;4.328;2022-08-01T00:36:01;20.80;99.90
25716;DHT22;13573;50.936;4.328;2022-08-01T00:38:28;20.70;99.90
25716;DHT22;13573;50.936;4.328;2022-08-01T00:40:54;20.80;99.90
25716;DHT22;13573;50.936;4.328;2022-08-01T00:43:21;21.00;99.90
25716;DHT22;13573;50.936;4.328;2022-08-01T00:45:48;21.10;99.90
25716;DHT22;13573;50.936;4.328;2022-08-01T00:48:15;21.00;99.90
25716;DHT22;13573;50.936;4.328;2022-08-01T00:50:42;20.40;99.90
25716;DHT22;13573;50.936;4.328;2022-08-01T00:53:09;20.80;99.90
25716;DHT22;13573;50.936;4.328;2022-08-01T00:55:35;20.70;99.90
25716;DHT22;13573;50.936;4.328;2022-08-01T00:58:02;21.10;99.90
25716;DHT22;13573;50.936;4.328;2022-08-01T01:00:29;19.30;99.90
25716;DHT22;13573;50.936;4.328;2022-08-01T01:02:57;20.80;99.90
25716;DHT22;13573;50.936;4.328;2022-08-01T01:07:57;21.10;99.90
25716;DHT22;13573;50.936;4.328;2022-08-01T01:10:32;20.30;99.90
25716;DHT22;13573;50.936;4.328;2022-08-01T01:13:21;20.80;99.90
25716;DHT22;13573;50.936;4.328;2022-08-01T01:15:55;20.30;99.90
25716;DHT22;13573;50.936;4.328;2022-08-01T01:18:29;20.60;99.90
25716;DHT22;13573;50.936;4.328;2022-08-01T01:26:40;20.80;99.90
25716;DHT22;13573;50.936;4.328;2022-08-01T01:29:14;21.00;99.90
25716;DHT22;13573;50.936;4.328;2022-08-01T01:31:49;20.70;99.90
25716;DHT22;13573;50.936;4.328;2022-08-01T01:34:18;20.70;99.90
25716;DHT22;13573;50.936;4.328;2022-08-01T01:36:47;20.90;99.90
25716;DHT22;13573;50.936;4.328;2022-08-01T01:39:15;20.60;99.90
25716;DHT22;13573;50.936;4.328;2022-08-01T01:41:44;20.50;99.90
25716;DHT22;13573;50.936;4.328;2022-08-01T01:44:11;20.60;99.90
25716;DHT22;13573;50.936;4.328;2022-08-01T01:46:41;20.40;99.90
25716;DHT22;13573;50.936;4.328;2022-08-01T01:49:09;21.20;99.90
25716;DHT22;13573;50.936;4.328;2022-08-01T01:54:06;20.50;99.90
25716;DHT22;13573;50.936;4.328;2022-08-01T01:59:04;20.60;99.90
25716;DHT22;13573;50.936;4.328;2022-08-01T02:01:32;20.50;99.90
25716;DHT22;13573;50.936;4.328;2022-08-01T02:06:29;20.40;99.90
25716;DHT22;13573;50.936;4.328;2022-08-01T02:08:59;20.30;99.90
25716;DHT22;13573;50.936;4.328;2022-08-01T02:11:26;20.90;99.90
25716;DHT22;13573;50.936;4.328;2022-08-01T02:13:58;20.40;99.90
25716;DHT22;13573;50.936;4.328;2022-08-01T02:16:29;20.30;99.90
25716;DHT22;13573;50.936;4.328;2022-08-01T02:18:56;20.30;99.90
25716;DHT22;13573;50.936;4.328;2022-08-01T02:21:27;20.70;99.90
25716;DHT22;13573;50.936;4.328;2022-08-01T02:23:57;20.70;99.90
25716;DHT22;13573;50.936;4.328;2022-08-01T02:26:24;20.40;99.90
25716;DHT22;13573;50.936;4.328;2022-08-01T02:28:57;20.80;99.90
25716;DHT22;13573;50.936;4.328;2022-08-01T02:31:26;20.20;99.90
25716;DHT22;13573;50.936;4.328;2022-08-01T02:34:00;20.40;99.90
25716;DHT22;13573;50.936;4.328;2022-08-01T02:36:28;20.60;99.90
25716;DHT22;13573;50.936;4.328;2022-08-01T02:41:26;20.30;99.90
25716;DHT22;13573;50.936;4.328;2022-08-01T02:43:56;20.60;99.90
25716;DHT22;13573;50.936;4.328;2022-08-01T02:46:33;20.40;99.90
25716;DHT22;13573;50.936;4.328;2022-08-01T02:49:01;20.50;99.90
25716;DHT22;13573;50.936;4.328;2022-08-01T02:51:31;20.30;99.90
25716;DHT22;13573;50.936;4.328;2022-08-01T02:54:00;20.40;99.90
25716;DHT22;13573;50.936;4.328;2022-08-01T02:56:29;20.20;99.90
25716;DHT22;13573;50.936;4.328;2022-08-01T02:59:07;20.40;99.90
25716;DHT22;13573;50.936;4.328;2022-08-01T03:01:35;20.50;99.90
25716;DHT22;13573;50.936;4.328;2022-08-01T03:04:05;20.40;99.90
25716;DHT22;13573;50.936;4.328;2022-08-01T03:06:33;21.60;99.90
25716;DHT22;13573;50.936;4.328;2022-08-01T03:09:02;20.30;99.90
25716;DHT22;13573;50.936;4.328;2022-08-01T03:11:29;20.20;99.90
25716;DHT22;13573;50.936;4.328;2022-08-01T03:13:59;19.40;99.90
25716;DHT22;13573;50.936;4.328;2022-08-01T03:16:28;19.70;99.90
25716;DHT22;13573;50.936;4.328;2022-08-01T03:18:56;19.90;99.90
25716;DHT22;13573;50.936;4.328;2022-08-01T03:21:23;19.80;99.90
25716;DHT22;13573;50.936;4.328;2022-08-01T03:23:52;20.00;99.90
25716;DHT22;13573;50.936;4.328;2022-08-01T03:26:21;20.00;99.90
25716;DHT22;13573;50.936;4.328;2022-08-01T03:31:17;20.10;99.90
25716;DHT22;13573;50.936;4.328;2022-08-01T03:33:44;20.40;99.90
25716;DHT22;13573;50.936;4.328;2022-08-01T03:36:12;20.00;99.90
25716;DHT22;13573;50.936;4.328;2022-08-01T03:38:40;19.90;99.90
25716;DHT22;13573;50.936;4.328;2022-08-01T03:41:13;20.50;99.90
25716;DHT22;13573;50.936;4.328;2022-08-01T03:43:46;19.90;99.90
25716;DHT22;13573;50.936;4.328;2022-08-01T03:46:20;20.20;99.90
25716;DHT22;13573;50.936;4.328;2022-08-01T03:48:48;19.80;99.90
25716;DHT22;13573;50.936;4.328;2022-08-01T03:51:18;20.20;99.90
25716;DHT22;13573;50.936;4.328;2022-08-01T03:53:45;19.90;99.90
25716;DHT22;13573;50.936;4.328;2022-08-01T03:56:16;20.10;99.90
25716;DHT22;13573;50.936;4.328;2022-08-01T03:58:45;19.90;99.90
25716;DHT22;13573;50.936;4.328;2022-08-01T04:01:12;20.50;99.90
25716;DHT22;13573;50.936;4.328;2022-08-01T04:03:40;18.70;99.90
25716;DHT22;13573;50.936;4.328;2022-08-01T04:06:07;20.20;99.90
25716;DHT22;13573;50.936;4.328;2022-08-01T04:08:38;19.90;99.90
25716;DHT22;13573;50.936;4.328;2022-08-01T04:11:05;20.30;99.90
25716;DHT22;13573;50.936;4.328;2022-08-01T04:13:31;20.30;99.90
25716;DHT22;13573;50.936;4.328;2022-08-01T04:15:59;20.00;99.90
25716;DHT22;13573;50.936;4.328;2022-08-01T04:18:26;19.80;99.90
25716;DHT22;13573;50.936;4.328;2022-08-01T04:20:52;19.80;99.90
25716;DHT22;13573;50.936;4.328;2022-08-01T04:23:22;20.10;99.90
25716;DHT22;13573;50.936;4.328;2022-08-01T04:25:50;20.40;99.90
25716;DHT22;13573;50.936;4.328;2022-08-01T04:28:17;20.70;99.90
25716;DHT22;13573;50.936;4.328;2022-08-01T04:30:46;20.20;99.90
25716;DHT22;13573;50.936;4.328;2022-08-01T04:33:16;20.20;99.90
25716;DHT22;13573;50.936;4.328;2022-08-01T04:35:47;20.70;99.90
25716;DHT22;13573;50.936;4.328;2022-08-01T04:38:19;20.40;99.90
25716;DHT22;13573;50.936;4.328;2022-08-01T04:40:49;20.20;99.90
25716;DHT22;13573;50.936;4.328;2022-08-01T04:43:16;20.40;99.90
25716;DHT22;13573;50.936;4.328;2022-08-01T04:45:45;22.00;99.90
25716;DHT22;13573;50.936;4.328;2022-08-01T04:48:15;20.10;99.90
25716;DHT22;13573;50.936;4.328;2022-08-01T04:50:42;20.20;99.90
25716;DHT22;13573;50.936;4.328;2022-08-01T04:53:17;20.10;99.90
25716;DHT22;13573;50.936;4.328;2022-08-01T04:55:44;20.10;99.90
25716;DHT22;13573;50.936;4.328;2022-08-01T04:58:12;21.70;99.90
25716;DHT22;13573;50.936;4.328;2022-08-01T05:00:39;20.00;99.90
25716;DHT22;13573;50.936;4.328;2022-08-01T05:03:05;20.00;99.90
25716;DHT22;13573;50.936;4.328;2022-08-01T05:05:32;20.20;99.90
25716;DHT22;13573;50.936;4.328;2022-08-01T05:07:59;18.60;99.90
25716;DHT22;13573;50.936;4.328;2022-08-01T05:10:26;22.10;99.90
25716;DHT22;13573;50.936;4.328;2022-08-01T05:12:53;19.50;99.90
25716;DHT22;13573;50.936;4.328;2022-08-01T05:15:20;20.60;99.90
25716;DHT22;13573;50.936;4.328;2022-08-01T05:20:14;20.80;99.90
25716;DHT22;13573;50.936;4.328;2022-08-01T05:25:08;20.30;99.90
25716;DHT22;13573;50.936;4.328;2022-08-01T05:27:35;20.50;99.90
25716;DHT22;13573;50.936;4.328;2022-08-01T05:30:04;20.40;99.90
25716;DHT22;13573;50.936;4.328;2022-08-01T05:34:58;20.50;99.90
25716;DHT22;13573;50.936;4.328;2022-08-01T05:37:25;20.50;99.90
25716;DHT22;13573;50.936;4.328;2022-08-01T05:39:52;20.80;99.90
25716;DHT22;13573;50.936;4.328;2022-08-01T05:42:18;20.60;99.90
25716;DHT22;13573;50.936;4.328;2022-08-01T05:44:45;20.80;99.90
25716;DHT22;13573;50.936;4.328;2022-08-01T05:47:12;19.80;99.90
25716;DHT22;13573;50.936;4.328;2022-08-01T05:49:38;20.70;99.90
25716;DHT22;13573;50.936;4.328;2022-08-01T05:52:05;21.40;99.90
25716;DHT22;13573;50.936;4.328;2022-08-01T05:54:32;19.60;99.90
25716;DHT22;13573;50.936;4.328;2022-08-01T05:56:58;20.50;99.90
25716;DHT22;13573;50.936;4.328;2022-08-01T05:59:28;20.60;99.90
25716;DHT22;13573;50.936;4.328;2022-08-01T06:01:55;21.00;99.90
25716;DHT22;13573;50.936;4.328;2022-08-01T06:04:22;20.60;99.90
25716;DHT22;13573;50.936;4.328;2022-08-01T06:06:49;20.80;99.90
25716;DHT22;13573;50.936;4.328;2022-08-01T06:09:15;20.80;99.90
25716;DHT22;13573;50.936;4.328;2022-08-01T06:14:09;21.00;99.90
25716;DHT22;13573;50.936;4.328;2022-08-01T06:16:35;21.20;99.90
25716;DHT22;13573;50.936;4.328;2022-08-01T06:19:02;21.10;99.90
25716;DHT22;13573;50.936;4.328;2022-08-01T06:21:28;21.20;99.90
25716;DHT22;13573;50.936;4.328;2022-08-01T06:23:55;21.20;99.90
25716;DHT22;13573;50.936;4.328;2022-08-01T06:26:22;21.80;99.90
25716;DHT22;13573;50.936;4.328;2022-08-01T06:31:16;21.50;99.90
25716;DHT22;13573;50.936;4.328;2022-08-01T06:33:43;22.10;99.90
25716;DHT22;13573;50.936;4.328;2022-08-01T06:36:09;22.00;99.90
25716;DHT22;13573;50.936;4.328;2022-08-01T06:38:37;22.00;99.90
25716;DHT22;13573;50.936;4.328;2022-08-01T06:41:04;22.40;99.90
25716;DHT22;13573;50.936;4.328;2022-08-01T06:43:31;21.90;99.90
25716;DHT22;13573;50.936;4.328;2022-08-01T06:45:58;22.20;99.90
25716;DHT22;13573;50.936;4.328;2022-08-01T06:48:24;22.40;99.90
25716;DHT22;13573;50.936;4.328;2022-08-01T06:50:51;22.50;99.90
25716;DHT22;13573;50.936;4.328;2022-08-01T06:53:19;22.40;99.90
25716;DHT22;13573;50.936;4.328;2022-08-01T06:55:46;22.90;99.90
25716;DHT22;13573;50.936;4.328;2022-08-01T06:58:13;22.60;99.90
25716;DHT22;13573;50.936;4.328;2022-08-01T07:00:39;23.10;99.90
25716;DHT22;13573;50.936;4.328;2022-08-01T07:03:08;24.50;99.90
25716;DHT22;13573;50.936;4.328;2022-08-01T07:05:34;23.10;99.90
25716;DHT22;13573;50.936;4.328;2022-08-01T07:08:01;23.20;99.90
25716;DHT22;13573;50.936;4.328;2022-08-01T07:10:28;23.20;99.90
25716;DHT22;13573;50.936;4.328;2022-08-01T07:12:55;23.20;99.90
25716;DHT22;13573;50.936;4.328;2022-08-01T07:15:21;23.40;99.90
25716;DHT22;13573;50.936;4.328;2022-08-01T07:17:50;23.30;99.90
25716;DHT22;13573;50.936;4.328;2022-08-01T07:20:17;24.00;99.90
25716;DHT22;13573;50.936;4.328;2022-08-01T07:22:43;24.40;99.90
25716;DHT22;13573;50.936;4.328;2022-08-01T07:25:10;24.40;99.90
25716;DHT22;13573;50.936;4.328;2022-08-01T07:27:37;24.80;99.90
25716;DHT22;13573;50.936;4.328;2022-08-01T07:30:05;24.70;99.90
25716;DHT22;13573;50.936;4.328;2022-08-01T07:32:33;24.00;99.90
25716;DHT22;13573;50.936;4.328;2022-08-01T07:35:01;22.50;99.90
25716;DHT22;13573;50.936;4.328;2022-08-01T07:37:28;23.40;99.90
25716;DHT22;13573;50.936;4.328;2022-08-01T07:39:55;23.80;99.90
25716;DHT22;13573;50.936;4.328;2022-08-01T07:42:21;23.40;99.90
25716;DHT22;13573;50.936;4.328;2022-08-01T07:44:48;24.00;99.90
25716;DHT22;13573;50.936;4.328;2022-08-01T07:47:15;23.80;99.90
25716;DHT22;13573;50.936;4.328;2022-08-01T07:49:42;24.10;99.90
25716;DHT22;13573;50.936;4.328;2022-08-01T07:52:08;24.80;99.90
25716;DHT22;13573;50.936;4.328;2022-08-01T07:54:35;24.90;99.90
25716;DHT22;13573;50.936;4.328;2022-08-01T07:57:04;25.40;99.90
25716;DHT22;13573;50.936;4.328;2022-08-01T07:59:34;25.30;99.90
25716;DHT22;13573;50.936;4.328;2022-08-01T08:02:01;25.50;99.90
25716;DHT22;13573;50.936;4.328;2022-08-01T08:04:28;25.50;99.90
25716;DHT22;13573;50.936;4.328;2022-08-01T08:06:55;23.70;99.90
25716;DHT22;13573;50.936;4.328;2022-08-01T08:09:21;25.40;99.90
25716;DHT22;13573;50.936;4.328;2022-08-01T08:11:49;25.60;99.90
25716;DHT22;13573;50.936;4.328;2022-08-01T08:14:17;26.00;99.90
25716;DHT22;13573;50.936;4.328;2022-08-01T08:16:44;24.60;99.90
25716;DHT22;13573;50.936;4.328;2022-08-01T08:19:11;24.70;99.90
25716;DHT22;13573;50.936;4.328;2022-08-01T08:21:38;25.20;99.90
25716;DHT22;13573;50.936;4.328;2022-08-01T08:24:06;25.80;99.90
25716;DHT22;13573;50.936;4.328;2022-08-01T08:26:39;25.70;99.90
25716;DHT22;13573;50.936;4.328;2022-08-01T08:29:07;25.50;99.90
25716;DHT22;13573;50.936;4.328;2022-08-01T08:34:00;25.20;99.90
25716;DHT22;13573;50.936;4.328;2022-08-01T08:36:28;27.00;99.90
25716;DHT22;13573;50.936;4.328;2022-08-01T08:38:54;26.60;99.90
25716;DHT22;13573;50.936;4.328;2022-08-01T08:41:22;27.00;99.90
25716;DHT22;13573;50.936;4.328;2022-08-01T08:43:49;26.30;99.90
25716;DHT22;13573;50.936;4.328;2022-08-01T08:46:16;26.60;99.90
25716;DHT22;13573;50.936;4.328;2022-08-01T08:48:45;26.50;99.90
25716;DHT22;13573;50.936;4.328;2022-08-01T08:51:12;26.50;99.90
25716;DHT22;13573;50.936;4.328;2022-08-01T08:53:41;26.60;99.90
25716;DHT22;13573;50.936;4.328;2022-08-01T08:56:12;26.80;99.90
25716;DHT22;13573;50.936;4.328;2022-08-01T08:58:44;25.50;99.90
25716;DHT22;13573;50.936;4.328;2022-08-01T09:01:11;27.10;99.90
25716;DHT22;13573;50.936;4.328;2022-08-01T09:03:39;26.60;99.90
25716;DHT22;13573;50.936;4.328;2022-08-01T09:06:06;28.80;99.90
25716;DHT22;13573;50.936;4.328;2022-08-01T09:08:33;29.40;99.90
25716;DHT22;13573;50.936;4.328;2022-08-01T09:11:01;30.30;99.90
25716;DHT22;13573;50.936;4.328;2022-08-01T09:13:28;30.60;99.90
25716;DHT22;13573;50.936;4.328;2022-08-01T09:15:56;30.90;99.90
25716;DHT22;13573;50.936;4.328;2022-08-01T09:18:34;31.40;99.90
25716;DHT22;13573;50.936;4.328;2022-08-01T09:21:15;30.80;99.90
25716;DHT22;13573;50.936;4.328;2022-08-01T09:23:45;30.80;99.90
25716;DHT22;13573;50.936;4.328;2022-08-01T09:26:15;30.20;99.90
25716;DHT22;13573;50.936;4.328;2022-08-01T09:28:44;30.40;99.90
25716;DHT22;13573;50.936;4.328;2022-08-01T09:31:13;28.70;99.90
25716;DHT22;13573;50.936;4.328;2022-08-01T09:33:47;30.70;99.90
25716;DHT22;13573;50.936;4.328;2022-08-01T09:36:14;30.00;99.90
25716;DHT22;13573;50.936;4.328;2022-08-01T09:38:41;30.00;99.90
25716;DHT22;13573;50.936;4.328;2022-08-01T09:41:07;30.10;99.90
25716;DHT22;13573;50.936;4.328;2022-08-01T09:43:34;30.40;99.90
25716;DHT22;13573;50.936;4.328;2022-08-01T09:46:09;30.70;99.90
25716;DHT22;13573;50.936;4.328;2022-08-01T09:48:37;30.20;99.90
25716;DHT22;13573;50.936;4.328;2022-08-01T09:51:07;28.60;99.90
25716;DHT22;13573;50.936;4.328;2022-08-01T09:53:42;30.30;99.90
25716;DHT22;13573;50.936;4.328;2022-08-01T09:56:10;30.30;99.90
25716;DHT22;13573;50.936;4.328;2022-08-01T09:58:56;30.40;99.90
25716;DHT22;13573;50.936;4.328;2022-08-01T10:01:24;31.00;99.90
25716;DHT22;13573;50.936;4.328;2022-08-01T10:06:28;32.50;99.90
25716;DHT22;13573;50.936;4.328;2022-08-01T10:08:55;31.70;99.90
25716;DHT22;13573;50.936;4.328;2022-08-01T10:11:22;31.60;99.90
25716;DHT22;13573;50.936;4.328;2022-08-01T10:13:49;31.50;99.90
25716;DHT22;13573;50.936;4.328;2022-08-01T10:16:16;31.40;99.90
25716;DHT22;13573;50.936;4.328;2022-08-01T10:18:44;32.30;99.90
25716;DHT22;13573;50.936;4.328;2022-08-01T10:21:13;32.30;99.90
25716;DHT22;13573;50.936;4.328;2022-08-01T10:23:41;32.20;99.90
25716;DHT22;13573;50.936;4.328;2022-08-01T10:26:10;32.40;99.90
25716;DHT22;13573;50.936;4.328;2022-08-01T10:28:38;32.40;99.00
25716;DHT22;13573;50.936;4.328;2022-08-01T10:31:06;31.90;99.60
25716;DHT22;13573;50.936;4.328;2022-08-01T10:33:33;31.90;99.90
25716;DHT22;13573;50.936;4.328;2022-08-01T10:38:29;31.60;99.90
25716;DHT22;13573;50.936;4.328;2022-08-01T10:40:57;31.80;99.00
25716;DHT22;13573;50.936;4.328;2022-08-01T10:43:25;32.40;99.90
25716;DHT22;13573;50.936;4.328;2022-08-01T10:45:53;32.00;99.90
25716;DHT22;13573;50.936;4.328;2022-08-01T10:48:29;31.60;99.90
25716;DHT22;13573;50.936;4.328;2022-08-01T10:50:58;30.50;99.90
25716;DHT22;13573;50.936;4.328;2022-08-01T10:53:26;30.60;99.90
25716;DHT22;13573;50.936;4.328;2022-08-01T10:56:01;31.20;99.90
25716;DHT22;13573;50.936;4.328;2022-08-01T10:58:33;32.90;99.50
25716;DHT22;13573;50.936;4.328;2022-08-01T11:01:22;32.30;99.90
25716;DHT22;13573;50.936;4.328;2022-08-01T11:03:57;32.70;99.90
25716;DHT22;13573;50.936;4.328;2022-08-01T11:06:48;33.20;97.80
25716;DHT22;13573;50.936;4.328;2022-08-01T11:12:11;32.10;98.30
25716;DHT22;13573;50.936;4.328;2022-08-01T11:15:17;32.40;98.50
25716;DHT22;13573;50.936;4.328;2022-08-01T11:17:46;32.70;98.30
25716;DHT22;13573;50.936;4.328;2022-08-01T11:20:16;33.50;99.20
25716;DHT22;13573;50.936;4.328;2022-08-01T11:25:22;33.90;98.40
25716;DHT22;13573;50.936;4.328;2022-08-01T11:27:48;34.60;98.30
25716;DHT22;13573;50.936;4.328;2022-08-01T11:30:23;34.10;97.90
25716;DHT22;13573;50.936;4.328;2022-08-01T11:32:53;34.80;97.30
25716;DHT22;13573;50.936;4.328;2022-08-01T11:35:22;35.50;96.40
25716;DHT22;13573;50.936;4.328;2022-08-01T11:37:52;34.60;96.10
25716;DHT22;13573;50.936;4.328;2022-08-01T11:40:25;35.40;95.70
25716;DHT22;13573;50.936;4.328;2022-08-01T11:45:49;35.90;93.90
25716;DHT22;13573;50.936;4.328;2022-08-01T11:48:18;35.80;93.50
25716;DHT22;13573;50.936;4.328;2022-08-01T11:50:45;35.10;93.40
25716;DHT22;13573;50.936;4.328;2022-08-01T11:53:12;34.80;96.10
25716;DHT22;13573;50.936;4.328;2022-08-01T11:55:47;33.70;94.40
25716;DHT22;13573;50.936;4.328;2022-08-01T11:58:16;33.30;96.30
25716;DHT22;13573;50.936;4.328;2022-08-01T12:00:49;34.30;95.90
25716;DHT22;13573;50.936;4.328;2022-08-01T12:03:13;33.10;94.10
25716;DHT22;13573;50.936;4.328;2022-08-01T12:05:43;34.90;94.80
25716;DHT22;13573;50.936;4.328;2022-08-01T12:08:10;35.00;93.80
25716;DHT22;13573;50.936;4.328;2022-08-01T12:10:36;35.00;92.50
25716;DHT22;13573;50.936;4.328;2022-08-01T12:13:05;35.40;93.70
25716;DHT22;13573;50.936;4.328;2022-08-01T12:15:36;36.00;92.70
25716;DHT22;13573;50.936;4.328;2022-08-01T12:18:05;37.10;92.10
25716;DHT22;13573;50.936;4.328;2022-08-01T12:20:34;37.00;92.90
25716;DHT22;13573;50.936;4.328;2022-08-01T12:23:03;36.80;91.70
25716;DHT22;13573;50.936;4.328;2022-08-01T12:25:31;38.60;91.90
25716;DHT22;13573;50.936;4.328;2022-08-01T12:28:02;36.90;92.60
25716;DHT22;13573;50.936;4.328;2022-08-01T12:30:29;35.50;92.60
25716;DHT22;13573;50.936;4.328;2022-08-01T12:32:59;35.70;93.20
25716;DHT22;13573;50.936;4.328;2022-08-01T12:35:29;35.60;91.60
25716;DHT22;13573;50.936;4.328;2022-08-01T12:37:59;35.10;91.30
25716;DHT22;13573;50.936;4.328;2022-08-01T12:40:29;34.30;92.80
25716;DHT22;13573;50.936;4.328;2022-08-01T12:43:01;34.40;91.30
25716;DHT22;13573;50.936;4.328;2022-08-01T12:45:30;34.40;91.90
25716;DHT22;13573;50.936;4.328;2022-08-01T12:50:28;35.00;91.80
25716;DHT22;13573;50.936;4.328;2022-08-01T12:52:57;36.30;91.40
25716;DHT22;13573;50.936;4.328;2022-08-01T12:55:26;37.50;90.30
25716;DHT22;13573;50.936;4.328;2022-08-01T12:58:06;37.10;88.60
25716;DHT22;13573;50.936;4.328;2022-08-01T13:00:34;37.00;88.30
25716;DHT22;13573;50.936;4.328;2022-08-01T13:03:05;35.20;91.30
25716;DHT22;13573;50.936;4.328;2022-08-01T13:08:12;36.10;89.80
25716;DHT22;13573;50.936;4.328;2022-08-01T13:10:39;35.10;90.10
25716;DHT22;13573;50.936;4.328;2022-08-01T13:13:07;35.20;90.40
25716;DHT22;13573;50.936;4.328;2022-08-01T13:15:36;35.70;89.60
25716;DHT22;13573;50.936;4.328;2022-08-01T13:20:43;36.50;87.30
25716;DHT22;13573;50.936;4.328;2022-08-01T13:23:11;36.60;86.60
25716;DHT22;13573;50.936;4.328;2022-08-01T13:25:46;37.50;84.30
25716;DHT22;13573;50.936;4.328;2022-08-01T13:28:15;36.60;83.90
25716;DHT22;13573;50.936;4.328;2022-08-01T13:33:16;37.90;82.00
25716;DHT22;13573;50.936;4.328;2022-08-01T13:35:43;38.30;82.30
25716;DHT22;13573;50.936;4.328;2022-08-01T13:38:09;38.30;80.20
25716;DHT22;13573;50.936;4.328;2022-08-01T13:40:36;38.00;78.70
25716;DHT22;13573;50.936;4.328;2022-08-01T13:43:03;38.10;76.40
25716;DHT22;13573;50.936;4.328;2022-08-01T13:45:30;35.60;81.70
25716;DHT22;13573;50.936;4.328;2022-08-01T13:47:56;35.70;83.70
25716;DHT22;13573;50.936;4.328;2022-08-01T13:50:23;35.00;84.70
25716;DHT22;13573;50.936;4.328;2022-08-01T13:55:18;34.80;80.10
25716;DHT22;13573;50.936;4.328;2022-08-01T13:57:44;35.20;83.90
25716;DHT22;13573;50.936;4.328;2022-08-01T14:00:11;34.90;84.90
25716;DHT22;13573;50.936;4.328;2022-08-01T14:02:38;35.10;83.50
25716;DHT22;13573;50.936;4.328;2022-08-01T14:05:05;36.10;82.70
25716;DHT22;13573;50.936;4.328;2022-08-01T14:07:33;37.60;81.30
25716;DHT22;13573;50.936;4.328;2022-08-01T14:09:59;37.30;78.70
25716;DHT22;13573;50.936;4.328;2022-08-01T14:12:27;37.60;78.70
25716;DHT22;13573;50.936;4.328;2022-08-01T14:14:53;37.90;79.10
25716;DHT22;13573;50.936;4.328;2022-08-01T14:17:20;37.30;79.30
25716;DHT22;13573;50.936;4.328;2022-08-01T14:19:46;35.90;80.20
25716;DHT22;13573;50.936;4.328;2022-08-01T14:22:13;36.30;77.40
25716;DHT22;13573;50.936;4.328;2022-08-01T14:24:40;36.70;77.50
25716;DHT22;13573;50.936;4.328;2022-08-01T14:27:06;36.90;79.90
25716;DHT22;13573;50.936;4.328;2022-08-01T14:29:33;36.60;78.20
25716;DHT22;13573;50.936;4.328;2022-08-01T14:31:59;36.00;78.00
25716;DHT22;13573;50.936;4.328;2022-08-01T14:34:26;35.60;79.60
25716;DHT22;13573;50.936;4.328;2022-08-01T14:36:53;35.80;77.40
25716;DHT22;13573;50.936;4.328;2022-08-01T14:39:20;33.70;83.50
25716;DHT22;13573;50.936;4.328;2022-08-01T14:41:46;33.80;79.60
25716;DHT22;13573;50.936;4.328;2022-08-01T14:44:13;31.80;83.10
25716;DHT22;13573;50.936;4.328;2022-08-01T14:46:40;31.90;83.90
25716;DHT22;13573;50.936;4.328;2022-08-01T14:49:08;31.80;81.90
25716;DHT22;13573;50.936;4.328;2022-08-01T14:51:34;30.20;86.80
25716;DHT22;13573;50.936;4.328;2022-08-01T14:54:03;31.60;82.90
25716;DHT22;13573;50.936;4.328;2022-08-01T14:56:30;31.70;89.30
25716;DHT22;13573;50.936;4.328;2022-08-01T14:58:57;31.60;87.40
25716;DHT22;13573;50.936;4.328;2022-08-01T15:01:24;31.70;87.80
25716;DHT22;13573;50.936;4.328;2022-08-01T15:03:51;32.20;82.80
25716;DHT22;13573;50.936;4.328;2022-08-01T15:06:18;32.10;83.90
25716;DHT22;13573;50.936;4.328;2022-08-01T15:11:12;31.70;82.90
25716;DHT22;13573;50.936;4.328;2022-08-01T15:13:39;31.20;83.80
25716;DHT22;13573;50.936;4.328;2022-08-01T15:18:32;31.00;84.90
25716;DHT22;13573;50.936;4.328;2022-08-01T15:20:59;30.90;85.20
25716;DHT22;13573;50.936;4.328;2022-08-01T15:23:25;30.80;89.90
25716;DHT22;13573;50.936;4.328;2022-08-01T15:25:52;29.10;89.10
25716;DHT22;13573;50.936;4.328;2022-08-01T15:28:19;30.80;90.00
25716;DHT22;13573;50.936;4.328;2022-08-01T15:30:46;29.40;89.60
25716;DHT22;13573;50.936;4.328;2022-08-01T15:33:13;31.00;85.50
25716;DHT22;13573;50.936;4.328;2022-08-01T15:35:39;31.20;89.50
25716;DHT22;13573;50.936;4.328;2022-08-01T15:38:08;30.70;89.10
25716;DHT22;13573;50.936;4.328;2022-08-01T15:40:35;30.90;84.40
25716;DHT22;13573;50.936;4.328;2022-08-01T15:43:02;30.70;90.10
25716;DHT22;13573;50.936;4.328;2022-08-01T15:45:28;30.60;84.90
25716;DHT22;13573;50.936;4.328;2022-08-01T15:47:55;30.50;90.30
25716;DHT22;13573;50.936;4.328;2022-08-01T15:50:22;29.50;89.80
25716;DHT22;13573;50.936;4.328;2022-08-01T15:52:48;30.70;85.40
25716;DHT22;13573;50.936;4.328;2022-08-01T15:55:15;30.00;91.10
25716;DHT22;13573;50.936;4.328;2022-08-01T15:57:41;30.20;87.20
25716;DHT22;13573;50.936;4.328;2022-08-01T16:00:09;29.90;91.90
25716;DHT22;13573;50.936;4.328;2022-08-01T16:02:37;29.80;91.80
25716;DHT22;13573;50.936;4.328;2022-08-01T16:05:03;29.90;88.10
25716;DHT22;13573;50.936;4.328;2022-08-01T16:07:30;29.70;88.90
25716;DHT22;13573;50.936;4.328;2022-08-01T16:09:57;29.90;88.00
25716;DHT22;13573;50.936;4.328;2022-08-01T16:12:23;29.90;88.70
25716;DHT22;13573;50.936;4.328;2022-08-01T16:14:50;28.80;92.00
25716;DHT22;13573;50.936;4.328;2022-08-01T16:17:17;29.10;92.20
25716;DHT22;13573;50.936;4.328;2022-08-01T16:19:43;29.50;92.00
25716;DHT22;13573;50.936;4.328;2022-08-01T16:22:10;29.70;92.30
25716;DHT22;13573;50.936;4.328;2022-08-01T16:24:37;29.10;92.40
25716;DHT22;13573;50.936;4.328;2022-08-01T16:27:03;28.90;91.90
25716;DHT22;13573;50.936;4.328;2022-08-01T16:29:30;29.00;92.10
25716;DHT22;13573;50.936;4.328;2022-08-01T16:31:58;29.00;92.00
25716;DHT22;13573;50.936;4.328;2022-08-01T16:34:25;29.00;91.90
25716;DHT22;13573;50.936;4.328;2022-08-01T16:36:52;27.70;91.50
25716;DHT22;13573;50.936;4.328;2022-08-01T16:39:21;29.10;87.90
25716;DHT22;13573;50.936;4.328;2022-08-01T16:41:47;28.80;91.50
25716;DHT22;13573;50.936;4.328;2022-08-01T16:44:14;29.10;87.30
25716;DHT22;13573;50.936;4.328;2022-08-01T16:46:41;30.10;92.30
25716;DHT22;13573;50.936;4.328;2022-08-01T16:49:07;28.70;87.80